sensor_id;sensor_type;location;lat;lon;timestamp;temperature;humidity
61253;DHT22;47127;47.516;8.596;2023-04-01T00:02:17;9.00;99.90
61253;DHT22;47127;47.516;8.596;2023-04-01T00:04:43;9.10;99.90
61253;DHT22;47127;47.516;8.596;2023-04-01T00:07:09;9.00;99.90
61253;DHT22;47127;47.516;8.596;2023-04-01T00:09:34;9.00;99.90
61253;DHT22;47127;47.516;8.596;2023-04-01T00:12:00;8.90;99.90
61253;DHT22;47127;47.516;8.596;2023-04-01T00:14:26;8.80;99.90
61253;DHT22;47127;47.516;8.596;2023-04-01T00:16:52;8.70;99.90
61253;DHT22;47127;47.516;8.596;2023-04-01T00:19:18;8.60;99.90
61253;DHT22;47127;47.516;8.596;2023-04-01T00:21:45;8.50;99.90
61253;DHT22;47127;47.516;8.596;2023-04-01T00:24:10;8.40;99.90
61253;DHT22;47127;47.516;8.596;2023-04-01T00:26:36;8.50;99.90
61253;DHT22;47127;47.516;8.596;2023-04-01T00:29:02;8.60;99.90
61253;DHT22;47127;47.516;8.596;2023-04-01T00:31:27;8.70;99.90
61253;DHT22;47127;47.516;8.596;2023-04-01T00:33:53;8.60;99.90
61253;DHT22;47127;47.516;8.596;2023-04-01T00:36:20;8.50;99.90
61253;DHT22;47127;47.516;8.596;2023-04-01T00:38:47;8.50;99.90
61253;DHT22;47127;47.516;8.596;2023-04-01T00:41:14;8.50;99.90
61253;DHT22;47127;47.516;8.596;2023-04-01T00:43:41;8.60;99.90
61253;DHT22;47127;47.516;8.596;2023-04-01T00:46:07;8.60;99.90
61253;DHT22;47127;47.516;8.596;2023-04-01T00:48:39;8.70;99.90
61253;DHT22;47127;47.516;8.596;2023-04-01T00:51:25;8.60;99.90
61253;DHT22;47127;47.516;8.596;2023-04-01T00:53:53;8.70;99.90
61253;DHT22;47127;47.516;8.596;2023-04-01T00:59:27;8.80;99.90
61253;DHT22;47127;47.516;8.596;2023-04-01T01:01:54;8.80;99.90
61253;DHT22;47127;47.516;8.596;2023-04-01T01:04:28;8.90;99.90
61253;DHT22;47127;47.516;8.596;2023-04-01T01:15:23;9.10;99.90
61253;DHT22;47127;47.516;8.596;2023-04-01T01:18:15;9.00;99.90
61253;DHT22;47127;47.516;8.596;2023-04-01T01:26:50;9.00;99.90
61253;DHT22;47127;47.516;8.596;2023-04-01T01:29:33;9.10;99.90
61253;DHT22;47127;47.516;8.596;2023-04-01T01:32:28;9.10;99.90
61253;DHT22;47127;47.516;8.596;2023-04-01T01:35:09;9.00;99.90
61253;DHT22;47127;47.516;8.596;2023-04-01T01:37:38;9.10;99.90
61253;DHT22;47127;47.516;8.596;2023-04-01T01:40:07;9.00;99.90
61253;DHT22;47127;47.516;8.596;2023-04-01T01:42:36;9.00;99.90
61253;DHT22;47127;47.516;8.596;2023-04-01T01:45:04;9.20;99.90
61253;DHT22;47127;47.516;8.596;2023-04-01T01:47:31;8.90;99.90
61253;DHT22;47127;47.516;8.596;2023-04-01T01:49:58;9.00;99.90
61253;DHT22;47127;47.516;8.596;2023-04-01T01:52:27;9.10;99.90
61253;DHT22;47127;47.516;8.596;2023-04-01T01:54:57;9.10;99.90
61253;DHT22;47127;47.516;8.596;2023-04-01T01:57:26;9.10;99.90
61253;DHT22;47127;47.516;8.596;2023-04-01T02:00:02;9.00;99.90
61253;DHT22;47127;47.516;8.596;2023-04-01T02:02:30;9.00;99.90
61253;DHT22;47127;47.516;8.596;2023-04-01T02:04:57;9.10;99.90
61253;DHT22;47127;47.516;8.596;2023-04-01T02:07:27;9.10;99.90
61253;DHT22;47127;47.516;8.596;2023-04-01T02:09:55;9.10;99.90
61253;DHT22;47127;47.516;8.596;2023-04-01T02:12:22;9.10;99.90
61253;DHT22;47127;47.516;8.596;2023-04-01T02:14:52;9.00;99.90
61253;DHT22;47127;47.516;8.596;2023-04-01T02:17:21;9.00;99.90
61253;DHT22;47127;47.516;8.596;2023-04-01T02:22:21;9.00;99.90
61253;DHT22;47127;47.516;8.596;2023-04-01T02:24:50;9.10;99.90
61253;DHT22;47127;47.516;8.596;2023-04-01T02:27:16;9.10;99.90
61253;DHT22;47127;47.516;8.596;2023-04-01T02:29:41;9.10;99.90
61253;DHT22;47127;47.516;8.596;2023-04-01T02:32:08;9.10;99.90
61253;DHT22;47127;47.516;8.596;2023-04-01T02:34:35;9.10;99.90
61253;DHT22;47127;47.516;8.596;2023-04-01T02:37:01;9.10;99.90
61253;DHT22;47127;47.516;8.596;2023-04-01T02:39:27;9.10;99.90
61253;DHT22;47127;47.516;8.596;2023-04-01T02:41:53;9.00;99.90
61253;DHT22;47127;47.516;8.596;2023-04-01T02:44:18;9.10;99.90
61253;DHT22;47127;47.516;8.596;2023-04-01T02:46:44;9.20;99.90
61253;DHT22;47127;47.516;8.596;2023-04-01T02:49:10;8.90;99.90
61253;DHT22;47127;47.516;8.596;2023-04-01T02:51:35;8.80;99.90
61253;DHT22;47127;47.516;8.596;2023-04-01T02:54:01;8.70;99.90
61253;DHT22;47127;47.516;8.596;2023-04-01T02:56:27;8.60;99.90
61253;DHT22;47127;47.516;8.596;2023-04-01T02:58:54;8.80;99.90
61253;DHT22;47127;47.516;8.596;2023-04-01T03:01:20;8.80;99.90
61253;DHT22;47127;47.516;8.596;2023-04-01T03:03:45;8.80;99.90
61253;DHT22;47127;47.516;8.596;2023-04-01T03:06:13;8.80;99.90
61253;DHT22;47127;47.516;8.596;2023-04-01T03:08:39;8.90;99.90
61253;DHT22;47127;47.516;8.596;2023-04-01T03:11:06;8.80;99.90
61253;DHT22;47127;47.516;8.596;2023-04-01T03:13:32;8.70;99.90
61253;DHT22;47127;47.516;8.596;2023-04-01T03:15:58;8.70;99.90
61253;DHT22;47127;47.516;8.596;2023-04-01T03:18:25;8.70;99.90
61253;DHT22;47127;47.516;8.596;2023-04-01T03:20:50;8.70;99.90
61253;DHT22;47127;47.516;8.596;2023-04-01T03:23:16;9.20;99.90
61253;DHT22;47127;47.516;8.596;2023-04-01T03:25:44;8.70;99.90
61253;DHT22;47127;47.516;8.596;2023-04-01T03:28:10;8.80;99.90
61253;DHT22;47127;47.516;8.596;2023-04-01T03:30:36;8.80;99.90
61253;DHT22;47127;47.516;8.596;2023-04-01T03:33:01;8.90;99.90
61253;DHT22;47127;47.516;8.596;2023-04-01T03:35:28;9.00;99.90
61253;DHT22;47127;47.516;8.596;2023-04-01T03:37:54;8.90;99.90
61253;DHT22;47127;47.516;8.596;2023-04-01T03:40:20;8.90;99.90
61253;DHT22;47127;47.516;8.596;2023-04-01T03:42:46;8.90;99.90
61253;DHT22;47127;47.516;8.596;2023-04-01T03:45:12;8.90;99.90
61253;DHT22;47127;47.516;8.596;2023-04-01T03:47:38;8.80;99.90
61253;DHT22;47127;47.516;8.596;2023-04-01T03:50:05;8.90;99.90
61253;DHT22;47127;47.516;8.596;2023-04-01T03:52:31;8.80;99.90
61253;DHT22;47127;47.516;8.596;2023-04-01T03:54:56;8.80;99.90
61253;DHT22;47127;47.516;8.596;2023-04-01T03:57:22;8.80;99.90
61253;DHT22;47127;47.516;8.596;2023-04-01T03:59:47;8.80;99.90
61253;DHT22;47127;47.516;8.596;2023-04-01T04:02:13;8.80;99.90
61253;DHT22;47127;47.516;8.596;2023-04-01T04:04:38;8.80;99.90
61253;DHT22;47127;47.516;8.596;2023-04-01T04:07:04;8.90;99.90
61253;DHT22;47127;47.516;8.596;2023-04-01T04:09:31;8.70;99.90
61253;DHT22;47127;47.516;8.596;2023-04-01T04:11:57;8.70;99.90
61253;DHT22;47127;47.516;8.596;2023-04-01T04:14:23;8.50;99.90
61253;DHT22;47127;47.516;8.596;2023-04-01T04:16:48;8.50;99.90
61253;DHT22;47127;47.516;8.596;2023-04-01T04:19:14;8.50;99.90
61253;DHT22;47127;47.516;8.596;2023-04-01T04:21:41;8.50;99.90
61253;DHT22;47127;47.516;8.596;2023-04-01T04:24:07;8.50;99.90
61253;DHT22;47127;47.516;8.596;2023-04-01T04:26:33;8.40;99.90
61253;DHT22;47127;47.516;8.596;2023-04-01T04:28:59;8.50;99.90
61253;DHT22;47127;47.516;8.596;2023-04-01T04:31:25;8.60;99.90
61253;DHT22;47127;47.516;8.596;2023-04-01T04:33:51;8.70;99.90
61253;DHT22;47127;47.516;8.596;2023-04-01T04:36:19;8.50;99.90
61253;DHT22;47127;47.516;8.596;2023-04-01T04:38:45;8.40;99.90
61253;DHT22;47127;47.516;8.596;2023-04-01T04:41:12;8.50;99.90
61253;DHT22;47127;47.516;8.596;2023-04-01T04:43:41;8.50;99.90
61253;DHT22;47127;47.516;8.596;2023-04-01T04:46:08;8.60;99.90
61253;DHT22;47127;47.516;8.596;2023-04-01T04:48:34;8.60;99.90
61253;DHT22;47127;47.516;8.596;2023-04-01T04:51:00;8.60;99.90
61253;DHT22;47127;47.516;8.596;2023-04-01T04:53:26;8.60;99.90
61253;DHT22;47127;47.516;8.596;2023-04-01T04:55:52;8.70;99.90
61253;DHT22;47127;47.516;8.596;2023-04-01T04:58:18;8.70;99.90
61253;DHT22;47127;47.516;8.596;2023-04-01T05:00:44;8.70;99.90
61253;DHT22;47127;47.516;8.596;2023-04-01T05:03:10;8.60;99.90
61253;DHT22;47127;47.516;8.596;2023-04-01T05:05:38;8.50;99.90
61253;DHT22;47127;47.516;8.596;2023-04-01T05:08:04;8.50;99.90
61253;DHT22;47127;47.516;8.596;2023-04-01T05:10:30;8.50;99.90
61253;DHT22;47127;47.516;8.596;2023-04-01T05:12:57;8.60;99.90
61253;DHT22;47127;47.516;8.596;2023-04-01T05:15:22;8.60;99.90
61253;DHT22;47127;47.516;8.596;2023-04-01T05:17:48;8.50;99.90
61253;DHT22;47127;47.516;8.596;2023-04-01T05:20:14;8.50;99.90
61253;DHT22;47127;47.516;8.596;2023-04-01T05:22:40;8.40;99.90
61253;DHT22;47127;47.516;8.596;2023-04-01T05:25:07;8.40;99.90
61253;DHT22;47127;47.516;8.596;2023-04-01T05:27:32;8.50;99.90
61253;DHT22;47127;47.516;8.596;2023-04-01T05:29:58;8.40;99.90
61253;DHT22;47127;47.516;8.596;2023-04-01T05:32:24;8.50;99.90
61253;DHT22;47127;47.516;8.596;2023-04-01T05:34:53;8.50;99.90
61253;DHT22;47127;47.516;8.596;2023-04-01T05:37:19;8.50;99.90
61253;DHT22;47127;47.516;8.596;2023-04-01T05:39:45;8.50;99.90
61253;DHT22;47127;47.516;8.596;2023-04-01T05:42:11;8.50;99.90
61253;DHT22;47127;47.516;8.596;2023-04-01T05:44:36;8.40;99.90
61253;DHT22;47127;47.516;8.596;2023-04-01T05:47:04;8.40;99.90
61253;DHT22;47127;47.516;8.596;2023-04-01T05:49:31;8.40;99.90
61253;DHT22;47127;47.516;8.596;2023-04-01T05:51:58;8.30;99.90
61253;DHT22;47127;47.516;8.596;2023-04-01T05:54:23;8.30;99.90
61253;DHT22;47127;47.516;8.596;2023-04-01T05:56:49;8.30;99.90
61253;DHT22;47127;47.516;8.596;2023-04-01T05:59:15;8.40;99.90
61253;DHT22;47127;47.516;8.596;2023-04-01T06:01:41;8.40;99.90
61253;DHT22;47127;47.516;8.596;2023-04-01T06:04:06;8.50;99.90
61253;DHT22;47127;47.516;8.596;2023-04-01T06:06:32;8.50;99.90
61253;DHT22;47127;47.516;8.596;2023-04-01T06:09:07;8.50;99.90
61253;DHT22;47127;47.516;8.596;2023-04-01T06:12:09;8.50;99.90
61253;DHT22;47127;47.516;8.596;2023-04-01T06:17:19;8.60;99.90
61253;DHT22;47127;47.516;8.596;2023-04-01T06:26:00;8.60;99.90
61253;DHT22;47127;47.516;8.596;2023-04-01T06:28:52;8.50;99.90
61253;DHT22;47127;47.516;8.596;2023-04-01T06:34:45;8.40;99.90
61253;DHT22;47127;47.516;8.596;2023-04-01T06:40:32;8.60;99.90
61253;DHT22;47127;47.516;8.596;2023-04-01T06:43:14;8.70;99.90
61253;DHT22;47127;47.516;8.596;2023-04-01T06:54:40;8.90;99.90
61253;DHT22;47127;47.516;8.596;2023-04-01T06:59:54;9.00;99.90
61253;DHT22;47127;47.516;8.596;2023-04-01T07:05:12;9.00;99.90
61253;DHT22;47127;47.516;8.596;2023-04-01T07:07:43;9.00;99.90
61253;DHT22;47127;47.516;8.596;2023-04-01T07:10:19;9.00;99.90
61253;DHT22;47127;47.516;8.596;2023-04-01T07:12:53;9.10;99.90
61253;DHT22;47127;47.516;8.596;2023-04-01T07:15:33;9.00;99.90
61253;DHT22;47127;47.516;8.596;2023-04-01T07:18:05;9.00;99.90
61253;DHT22;47127;47.516;8.596;2023-04-01T07:20:37;9.10;99.90
61253;DHT22;47127;47.516;8.596;2023-04-01T07:23:08;9.00;99.90
61253;DHT22;47127;47.516;8.596;2023-04-01T07:25:47;9.00;99.90
61253;DHT22;47127;47.516;8.596;2023-04-01T07:28:15;10.20;99.90
61253;DHT22;47127;47.516;8.596;2023-04-01T07:31:20;9.10;99.90
61253;DHT22;47127;47.516;8.596;2023-04-01T07:36:42;8.90;99.90
61253;DHT22;47127;47.516;8.596;2023-04-01T07:39:20;9.00;99.90
61253;DHT22;47127;47.516;8.596;2023-04-01T07:44:36;8.90;99.90
61253;DHT22;47127;47.516;8.596;2023-04-01T07:50:25;9.00;99.90
61253;DHT22;47127;47.516;8.596;2023-04-01T07:55:42;9.10;99.90
61253;DHT22;47127;47.516;8.596;2023-04-01T08:00:55;9.10;99.90
61253;DHT22;47127;47.516;8.596;2023-04-01T08:03:33;8.90;99.90
61253;DHT22;47127;47.516;8.596;2023-04-01T08:06:19;8.80;99.90
61253;DHT22;47127;47.516;8.596;2023-04-01T08:09:06;8.80;99.90
61253;DHT22;47127;47.516;8.596;2023-04-01T08:26:34;8.80;99.90
61253;DHT22;47127;47.516;8.596;2023-04-01T08:34:08;8.90;99.90
61253;DHT22;47127;47.516;8.596;2023-04-01T08:36:44;8.80;99.90
61253;DHT22;47127;47.516;8.596;2023-04-01T08:39:16;8.80;99.90
61253;DHT22;47127;47.516;8.596;2023-04-01T08:47:10;8.90;99.90
61253;DHT22;47127;47.516;8.596;2023-04-01T08:52:41;8.90;99.90
61253;DHT22;47127;47.516;8.596;2023-04-01T08:55:20;8.80;99.90
61253;DHT22;47127;47.516;8.596;2023-04-01T09:01:14;8.80;99.90
61253;DHT22;47127;47.516;8.596;2023-04-01T09:17:49;9.00;99.90
61253;DHT22;47127;47.516;8.596;2023-04-01T09:20:31;8.80;99.90
61253;DHT22;47127;47.516;8.596;2023-04-01T09:26:02;9.00;99.90
61253;DHT22;47127;47.516;8.596;2023-04-01T09:28:50;9.00;99.90
61253;DHT22;47127;47.516;8.596;2023-04-01T09:33:52;9.20;99.90
61253;DHT22;47127;47.516;8.596;2023-04-01T09:36:46;9.30;99.90
61253;DHT22;47127;47.516;8.596;2023-04-01T09:39:34;9.30;99.90
61253;DHT22;47127;47.516;8.596;2023-04-01T09:44:53;9.20;99.90
61253;DHT22;47127;47.516;8.596;2023-04-01T09:50:34;9.30;99.90
61253;DHT22;47127;47.516;8.596;2023-04-01T10:04:08;9.60;99.90
61253;DHT22;47127;47.516;8.596;2023-04-01T10:07:04;9.80;99.90
61253;DHT22;47127;47.516;8.596;2023-04-01T10:24:39;10.20;99.90
61253;DHT22;47127;47.516;8.596;2023-04-01T10:39:34;10.00;99.90
61253;DHT22;47127;47.516;8.596;2023-04-01T10:56:42;10.20;99.90
61253;DHT22;47127;47.516;8.596;2023-04-01T11:19:14;10.30;99.90
61253;DHT22;47127;47.516;8.596;2023-04-01T11:24:57;10.20;99.90
61253;DHT22;47127;47.516;8.596;2023-04-01T11:32:54;9.90;99.90
61253;DHT22;47127;47.516;8.596;2023-04-01T11:35:50;10.00;99.90
61253;DHT22;47127;47.516;8.596;2023-04-01T11:52:43;9.90;99.90
61253;DHT22;47127;47.516;8.596;2023-04-01T12:09:39;9.70;99.90
61253;DHT22;47127;47.516;8.596;2023-04-01T12:12:42;9.80;99.90
61253;DHT22;47127;47.516;8.596;2023-04-01T12:15:32;9.80;99.90
61253;DHT22;47127;47.516;8.596;2023-04-01T12:18:23;9.90;99.90
61253;DHT22;47127;47.516;8.596;2023-04-01T12:21:04;9.90;99.90
61253;DHT22;47127;47.516;8.596;2023-04-01T12:23:52;10.00;99.90
61253;DHT22;47127;47.516;8.596;2023-04-01T12:31:42;9.80;99.90
61253;DHT22;47127;47.516;8.596;2023-04-01T12:37:17;9.60;99.90
61253;DHT22;47127;47.516;8.596;2023-04-01T12:39:56;9.60;99.90
61253;DHT22;47127;47.516;8.596;2023-04-01T12:43:14;9.60;99.90
61253;DHT22;47127;47.516;8.596;2023-04-01T12:51:51;10.10;99.90
61253;DHT22;47127;47.516;8.596;2023-04-01T12:54:45;10.40;99.90
61253;DHT22;47127;47.516;8.596;2023-04-01T12:57:53;10.50;99.90
61253;DHT22;47127;47.516;8.596;2023-04-01T13:15:12;11.00;99.90
61253;DHT22;47127;47.516;8.596;2023-04-01T13:37:15;11.50;99.90
61253;DHT22;47127;47.516;8.596;2023-04-01T13:42:39;11.70;99.90
61253;DHT22;47127;47.516;8.596;2023-04-01T14:10:34;11.40;99.90
61253;DHT22;47127;47.516;8.596;2023-04-01T14:13:12;11.40;99.90
61253;DHT22;47127;47.516;8.596;2023-04-01T14:16:04;11.60;99.90
61253;DHT22;47127;47.516;8.596;2023-04-01T14:21:32;11.20;99.90
61253;DHT22;47127;47.516;8.596;2023-04-01T14:24:01;11.00;99.90
61253;DHT22;47127;47.516;8.596;2023-04-01T14:27:36;11.10;99.90
61253;DHT22;47127;47.516;8.596;2023-04-01T14:34:55;10.80;99.90
61253;DHT22;47127;47.516;8.596;2023-04-01T14:37:40;10.50;99.90
61253;DHT22;47127;47.516;8.596;2023-04-01T14:40:20;10.40;99.90
61253;DHT22;47127;47.516;8.596;2023-04-01T14:43:13;10.40;99.90
61253;DHT22;47127;47.516;8.596;2023-04-01T14:48:56;10.30;99.90
61253;DHT22;47127;47.516;8.596;2023-04-01T14:51:32;10.20;99.90
61253;DHT22;47127;47.516;8.596;2023-04-01T14:54:02;10.20;99.90
61253;DHT22;47127;47.516;8.596;2023-04-01T14:57:04;10.00;99.90
61253;DHT22;47127;47.516;8.596;2023-04-01T14:59:30;10.00;99.90
61253;DHT22;47127;47.516;8.596;2023-04-01T15:18:33;9.60;99.90
61253;DHT22;47127;47.516;8.596;2023-04-01T15:26:42;10.50;99.90
61253;DHT22;47127;47.516;8.596;2023-04-01T15:29:17;10.80;99.90
61253;DHT22;47127;47.516;8.596;2023-04-01T15:31:55;11.40;99.90
61253;DHT22;47127;47.516;8.596;2023-04-01T15:34:46;11.70;99.90
61253;DHT22;47127;47.516;8.596;2023-04-01T15:37:28;12.00;99.90
61253;DHT22;47127;47.516;8.596;2023-04-01T15:40:01;12.40;99.90
61253;DHT22;47127;47.516;8.596;2023-04-01T15:48:19;12.60;99.90
61253;DHT22;47127;47.516;8.596;2023-04-01T15:54:05;12.60;99.90
61253;DHT22;47127;47.516;8.596;2023-04-01T16:00:05;12.60;99.90
61253;DHT22;47127;47.516;8.596;2023-04-01T16:05:49;13.00;99.90
61253;DHT22;47127;47.516;8.596;2023-04-01T16:08:47;13.10;99.90
61253;DHT22;47127;47.516;8.596;2023-04-01T16:19:49;13.30;99.90
61253;DHT22;47127;47.516;8.596;2023-04-01T16:22:38;12.90;99.90
61253;DHT22;47127;47.516;8.596;2023-04-01T16:28:16;12.30;99.90
61253;DHT22;47127;47.516;8.596;2023-04-01T16:33:52;12.10;99.90
61253;DHT22;47127;47.516;8.596;2023-04-01T16:36:47;12.30;99.90
61253;DHT22;47127;47.516;8.596;2023-04-01T16:42:38;11.90;99.90
61253;DHT22;47127;47.516;8.596;2023-04-01T16:44:59;11.90;99.90
61253;DHT22;47127;47.516;8.596;2023-04-01T16:47:35;11.90;99.90
61253;DHT22;47127;47.516;8.596;2023-04-01T16:50:22;11.90;99.90
61253;DHT22;47127;47.516;8.596;2023-04-01T16:55:20;11.20;99.90
61253;DHT22;47127;47.516;8.596;2023-04-01T16:57:51;11.00;99.90
61253;DHT22;47127;47.516;8.596;2023-04-01T17:02:52;10.70;99.90
61253;DHT22;47127;47.516;8.596;2023-04-01T17:05:44;10.50;99.90
61253;DHT22;47127;47.516;8.596;2023-04-01T17:08:53;10.40;99.90
61253;DHT22;47127;47.516;8.596;2023-04-01T17:28:41;11.40;99.90
61253;DHT22;47127;47.516;8.596;2023-04-01T17:31:25;11.20;99.90
61253;DHT22;47127;47.516;8.596;2023-04-01T17:45:03;10.70;99.90
61253;DHT22;47127;47.516;8.596;2023-04-01T17:50:20;10.60;99.90
61253;DHT22;47127;47.516;8.596;2023-04-01T17:53:07;10.50;99.90
61253;DHT22;47127;47.516;8.596;2023-04-01T17:55:51;10.30;99.90
61253;DHT22;47127;47.516;8.596;2023-04-01T17:58:28;10.30;99.90
61253;DHT22;47127;47.516;8.596;2023-04-01T18:06:34;10.20;99.90
61253;DHT22;47127;47.516;8.596;2023-04-01T18:09:26;10.20;99.90
61253;DHT22;47127;47.516;8.596;2023-04-01T18:15:27;10.30;99.90
61253;DHT22;47127;47.516;8.596;2023-04-01T18:18:17;10.20;99.90
61253;DHT22;47127;47.516;8.596;2023-04-01T18:21:13;10.20;99.90
61253;DHT22;47127;47.516;8.596;2023-04-01T18:26:18;10.10;99.90
61253;DHT22;47127;47.516;8.596;2023-04-01T18:28:59;10.00;99.90
61253;DHT22;47127;47.516;8.596;2023-04-01T18:31:40;10.00;99.90
61253;DHT22;47127;47.516;8.596;2023-04-01T18:34:42;10.00;99.90
61253;DHT22;47127;47.516;8.596;2023-04-01T18:37:18;11.20;99.90
61253;DHT22;47127;47.516;8.596;2023-04-01T18:39:58;9.90;99.90
61253;DHT22;47127;47.516;8.596;2023-04-01T18:45:37;9.80;99.90
61253;DHT22;47127;47.516;8.596;2023-04-01T18:48:33;9.80;99.90
61253;DHT22;47127;47.516;8.596;2023-04-01T18:51:16;9.90;99.90
61253;DHT22;47127;47.516;8.596;2023-04-01T18:56:48;9.80;99.90
61253;DHT22;47127;47.516;8.596;2023-04-01T18:59:32;9.70;99.90
61253;DHT22;47127;47.516;8.596;2023-04-01T19:02:07;9.70;99.90
61253;DHT22;47127;47.516;8.596;2023-04-01T19:04:47;9.70;99.90
61253;DHT22;47127;47.516;8.596;2023-04-01T19:15:30;9.60;99.90
61253;DHT22;47127;47.516;8.596;2023-04-01T19:26:14;9.60;99.90
61253;DHT22;47127;47.516;8.596;2023-04-01T19:28:58;9.60;99.90
61253;DHT22;47127;47.516;8.596;2023-04-01T19:31:41;9.60;99.90
61253;DHT22;47127;47.516;8.596;2023-04-01T19:37:02;9.60;99.90
61253;DHT22;47127;47.516;8.596;2023-04-01T19:51:21;9.60;99.90
61253;DHT22;47127;47.516;8.596;2023-04-01T19:54:27;9.70;99.90
61253;DHT22;47127;47.516;8.596;2023-04-01T19:59:33;9.60;99.90
61253;DHT22;47127;47.516;8.596;2023-04-01T20:04:47;9.60;99.90
61253;DHT22;47127;47.516;8.596;2023-04-01T20:10:09;9.50;99.90
61253;DHT22;47127;47.516;8.596;2023-04-01T20:12:58;9.40;99.90
61253;DHT22;47127;47.516;8.596;2023-04-01T20:16:17;9.30;99.90
61253;DHT22;47127;47.516;8.596;2023-04-01T20:18:51;9.20;99.90
61253;DHT22;47127;47.516;8.596;2023-04-01T20:21:19;9.20;99.90
61253;DHT22;47127;47.516;8.596;2023-04-01T20:24:14;9.30;99.90
61253;DHT22;47127;47.516;8.596;2023-04-01T20:26:50;9.30;99.90
61253;DHT22;47127;47.516;8.596;2023-04-01T20:32:57;9.20;99.90
61253;DHT22;47127;47.516;8.596;2023-04-01T20:35:31;9.10;99.90
61253;DHT22;47127;47.516;8.596;2023-04-01T20:38:26;9.10;99.90
61253;DHT22;47127;47.516;8.596;2023-04-01T20:44:31;9.10;99.90
61253;DHT22;47127;47.516;8.596;2023-04-01T20:49:54;9.00;99.90
61253;DHT22;47127;47.516;8.596;2023-04-01T20:52:25;8.90;99.90
61253;DHT22;47127;47.516;8.596;2023-04-01T20:55:52;8.90;99.90
61253;DHT22;47127;47.516;8.596;2023-04-01T20:58:05;8.80;99.90
61253;DHT22;47127;47.516;8.596;2023-04-01T21:09:35;8.80;99.90
61253;DHT22;47127;47.516;8.596;2023-04-01T21:23:34;8.80;99.90
61253;DHT22;47127;47.516;8.596;2023-04-01T21:26:30;8.90;99.90
61253;DHT22;47127;47.516;8.596;2023-04-01T21:29:36;8.90;99.90
61253;DHT22;47127;47.516;8.596;2023-04-01T21:34:47;8.80;99.90
61253;DHT22;47127;47.516;8.596;2023-04-01T21:50:43;8.50;99.90
61253;DHT22;47127;47.516;8.596;2023-04-01T21:56:42;8.40;99.90
61253;DHT22;47127;47.516;8.596;2023-04-01T22:07:40;8.50;99.90
61253;DHT22;47127;47.516;8.596;2023-04-01T22:12:59;8.60;99.90
61253;DHT22;47127;47.516;8.596;2023-04-01T22:15:58;8.60;99.90
61253;DHT22;47127;47.516;8.596;2023-04-01T22:18:46;8.60;99.90
61253;DHT22;47127;47.516;8.596;2023-04-01T22:26:50;8.70;99.90
61253;DHT22;47127;47.516;8.596;2023-04-01T22:32:17;8.70;99.90
61253;DHT22;47127;47.516;8.596;2023-04-01T22:34:57;8.80;99.90
61253;DHT22;47127;47.516;8.596;2023-04-01T22:37:41;8.80;99.90
61253;DHT22;47127;47.516;8.596;2023-04-01T22:40:29;8.80;99.90
61253;DHT22;47127;47.516;8.596;2023-04-01T22:43:00;8.90;99.90
61253;DHT22;47127;47.516;8.596;2023-04-01T22:48:40;8.90;99.90
61253;DHT22;47127;47.516;8.596;2023-04-01T22:52:01;9.00;99.90
61253;DHT22;47127;47.516;8.596;2023-04-01T22:54:19;8.90;99.90
61253;DHT22;47127;47.516;8.596;2023-04-01T22:59:54;8.80;99.90
61253;DHT22;47127;47.516;8.596;2023-04-01T23:02:28;8.80;99.90
61253;DHT22;47127;47.516;8.596;2023-04-01T23:05:04;8.70;99.90
61253;DHT22;47127;47.516;8.596;2023-04-01T23:10:20;8.70;99.90
61253;DHT22;47127;47.516;8.596;2023-04-01T23:12:47;8.70;99.90
61253;DHT22;47127;47.516;8.596;2023-04-01T23:15:16;8.70;99.90
61253;DHT22;47127;47.516;8.596;2023-04-01T23:21:26;8.70;99.90
61253;DHT22;47127;47.516;8.596;2023-04-01T23:26:58;8.80;99.90
61253;DHT22;47127;47.516;8.596;2023-04-01T23:29:25;8.80;99.90
61253;DHT22;47127;47.516;8.596;2023-04-01T23:31:59;8.80;99.90
61253;DHT22;47127;47.516;8.596;2023-04-01T23:34:33;8.80;99.90
61253;DHT22;47127;47.516;8.596;2023-04-01T23:37:18;8.70;99.90
61253;DHT22;47127;47.516;8.596;2023-04-01T23:39:46;8.60;99.90
61253;DHT22;47127;47.516;8.596;2023-04-01T23:44:55;8.50;99.90
61253;DHT22;47127;47.516;8.596;2023-04-01T23:47:24;8.50;99.90
61253;DHT22;47127;47.516;8.596;2023-04-01T23:50:03;8.40;99.90
61253;DHT22;47127;47.516;8.596;2023-04-01T23:52:35;8.50;99.90
61253;DHT22;47127;47.516;8.596;2023-04-01T23:55:12;8.50;99.90
61253;DHT22;47127;47.516;8.596;2023-04-01T23:57:39;8.50;99.90
